sensor_id;sensor_type;location;lat;lon;timestamp;pressure;altitude;pressure_sealevel;temperature;humidity
48622;BME280;34421;48.944;9.460;2022-10-31T00:00:19;98986.69;;;12.28;77.91
48622;BME280;34421;48.944;9.460;2022-10-31T00:02:44;98989.78;;;12.25;77.67
48622;BME280;34421;48.944;9.460;2022-10-31T00:05:09;98988.56;;;12.21;77.39
48622;BME280;34421;48.944;9.460;2022-10-31T00:07:35;98994.31;;;12.18;77.37
48622;BME280;34421;48.944;9.460;2022-10-31T00:10:00;98986.31;;;12.18;77.47
48622;BME280;34421;48.944;9.460;2022-10-31T00:12:25;98988.34;;;12.16;76.95
48622;BME280;34421;48.944;9.460;2022-10-31T00:14:50;98990.44;;;12.14;77.34
48622;BME280;34421;48.944;9.460;2022-10-31T00:17:16;98997.41;;;12.08;76.79
48622;BME280;34421;48.944;9.460;2022-10-31T00:19:41;98997.84;;;12.05;77.69
48622;BME280;34421;48.944;9.460;2022-10-31T00:22:06;98990.25;;;12.02;76.50
48622;BME280;34421;48.944;9.460;2022-10-31T00:24:31;98988.81;;;11.99;76.80
48622;BME280;34421;48.944;9.460;2022-10-31T00:26:56;98993.31;;;11.99;76.78
48622;BME280;34421;48.944;9.460;2022-10-31T00:29:22;98990.84;;;11.97;77.74
48622;BME280;34421;48.944;9.460;2022-10-31T00:31:47;98990.03;;;11.97;76.68
48622;BME280;34421;48.944;9.460;2022-10-31T00:34:12;98984.88;;;11.95;76.63
48622;BME280;34421;48.944;9.460;2022-10-31T00:36:37;98987.56;;;11.95;77.05
48622;BME280;34421;48.944;9.460;2022-10-31T00:39:02;98982.44;;;11.94;76.97
48622;BME280;34421;48.944;9.460;2022-10-31T00:41:28;98990.63;;;11.92;77.33
48622;BME280;34421;48.944;9.460;2022-10-31T00:43:54;98992.72;;;11.90;76.40
48622;BME280;34421;48.944;9.460;2022-10-31T00:46:19;98991.88;;;11.90;76.94
48622;BME280;34421;48.944;9.460;2022-10-31T00:48:44;98999.88;;;11.90;77.14
48622;BME280;34421;48.944;9.460;2022-10-31T00:51:10;98995.56;;;11.89;76.88
48622;BME280;34421;48.944;9.460;2022-10-31T00:53:35;98994.75;;;11.88;77.07
48622;BME280;34421;48.944;9.460;2022-10-31T00:56:00;98996.81;;;11.86;77.29
48622;BME280;34421;48.944;9.460;2022-10-31T00:58:25;98987.53;;;11.82;77.08
48622;BME280;34421;48.944;9.460;2022-10-31T01:00:51;98991.25;;;11.81;77.11
48622;BME280;34421;48.944;9.460;2022-10-31T01:03:20;98994.09;;;11.79;76.88
48622;BME280;34421;48.944;9.460;2022-10-31T01:05:45;98994.53;;;11.76;77.44
48622;BME280;34421;48.944;9.460;2022-10-31T01:08:10;98994.13;;;11.73;76.89
48622;BME280;34421;48.944;9.460;2022-10-31T01:10:36;98982.00;;;11.70;77.02
48622;BME280;34421;48.944;9.460;2022-10-31T01:13:01;98979.53;;;11.69;77.31
48622;BME280;34421;48.944;9.460;2022-10-31T01:15:26;98978.94;;;11.67;77.13
48622;BME280;34421;48.944;9.460;2022-10-31T01:17:51;98980.16;;;11.64;77.28
48622;BME280;34421;48.944;9.460;2022-10-31T01:20:17;98975.84;;;11.63;77.19
48622;BME280;34421;48.944;9.460;2022-10-31T01:22:42;98978.72;;;11.61;77.03
48622;BME280;34421;48.944;9.460;2022-10-31T01:25:08;98983.63;;;11.58;77.16
48622;BME280;34421;48.944;9.460;2022-10-31T01:27:33;98973.97;;;11.57;77.59
48622;BME280;34421;48.944;9.460;2022-10-31T01:29:58;98978.09;;;11.53;76.09
48622;BME280;34421;48.944;9.460;2022-10-31T01:32:23;98981.16;;;11.50;76.21
48622;BME280;34421;48.944;9.460;2022-10-31T01:34:49;98984.25;;;11.47;75.99
48622;BME280;34421;48.944;9.460;2022-10-31T01:37:14;98988.75;;;11.46;77.53
48622;BME280;34421;48.944;9.460;2022-10-31T01:39:39;98979.94;;;11.46;76.75
48622;BME280;34421;48.944;9.460;2022-10-31T01:42:05;98977.47;;;11.44;76.16
48622;BME280;34421;48.944;9.460;2022-10-31T01:51:50;98971.50;;;11.42;76.60
48622;BME280;34421;48.944;9.460;2022-10-31T01:54:18;98968.25;;;11.40;76.17
48622;BME280;34421;48.944;9.460;2022-10-31T01:56:47;98965.75;;;11.38;75.77
48622;BME280;34421;48.944;9.460;2022-10-31T01:59:14;98970.28;;;11.38;76.58
48622;BME280;34421;48.944;9.460;2022-10-31T02:01:41;98967.84;;;11.36;77.03
48622;BME280;34421;48.944;9.460;2022-10-31T02:04:07;98971.31;;;11.37;76.34
48622;BME280;34421;48.944;9.460;2022-10-31T02:06:33;98972.94;;;11.38;77.36
48622;BME280;34421;48.944;9.460;2022-10-31T02:09:00;98971.09;;;11.38;77.33
48622;BME280;34421;48.944;9.460;2022-10-31T02:11:27;98969.47;;;11.37;75.70
48622;BME280;34421;48.944;9.460;2022-10-31T02:13:53;98971.31;;;11.37;76.54
48622;BME280;34421;48.944;9.460;2022-10-31T02:16:19;98970.69;;;11.35;76.71
48622;BME280;34421;48.944;9.460;2022-10-31T02:18:44;98963.91;;;11.32;75.98
48622;BME280;34421;48.944;9.460;2022-10-31T02:39:18;98970.22;;;11.18;76.01
48622;BME280;34421;48.944;9.460;2022-10-31T02:46:49;98965.53;;;11.13;76.11
48622;BME280;34421;48.944;9.460;2022-10-31T02:49:26;98963.91;;;11.12;76.85
48622;BME280;34421;48.944;9.460;2022-10-31T02:51:52;98970.44;;;11.10;76.71
48622;BME280;34421;48.944;9.460;2022-10-31T02:54:18;98969.81;;;11.08;75.95
48622;BME280;34421;48.944;9.460;2022-10-31T02:56:44;98978.00;;;11.06;75.77
48622;BME280;34421;48.944;9.460;2022-10-31T02:59:10;98968.38;;;11.05;76.08
48622;BME280;34421;48.944;9.460;2022-10-31T03:06:57;98969.81;;;11.01;76.82
48622;BME280;34421;48.944;9.460;2022-10-31T03:14:54;98967.75;;;11.03;76.17
48622;BME280;34421;48.944;9.460;2022-10-31T03:17:27;98969.00;;;11.01;75.95
48622;BME280;34421;48.944;9.460;2022-10-31T03:19:56;98957.06;;;10.97;76.87
48622;BME280;34421;48.944;9.460;2022-10-31T03:22:24;98965.28;;;10.95;77.13
48622;BME280;34421;48.944;9.460;2022-10-31T03:24:51;98957.47;;;10.93;75.80
48622;BME280;34421;48.944;9.460;2022-10-31T03:27:27;98962.38;;;10.90;75.72
48622;BME280;34421;48.944;9.460;2022-10-31T03:29:56;98966.28;;;10.87;75.91
48622;BME280;34421;48.944;9.460;2022-10-31T03:32:27;98970.16;;;10.85;76.08
48622;BME280;34421;48.944;9.460;2022-10-31T03:34:54;98972.00;;;10.84;75.93
48622;BME280;34421;48.944;9.460;2022-10-31T03:37:20;98973.84;;;10.84;76.62
48622;BME280;34421;48.944;9.460;2022-10-31T03:39:47;98970.16;;;10.85;76.12
48622;BME280;34421;48.944;9.460;2022-10-31T03:42:27;98966.88;;;10.83;75.60
48622;BME280;34421;48.944;9.460;2022-10-31T03:44:55;98967.28;;;10.80;75.66
48622;BME280;34421;48.944;9.460;2022-10-31T03:47:22;98969.72;;;10.75;76.01
48622;BME280;34421;48.944;9.460;2022-10-31T03:49:48;98970.53;;;10.75;75.76
48622;BME280;34421;48.944;9.460;2022-10-31T03:52:18;98970.31;;;10.77;76.48
48622;BME280;34421;48.944;9.460;2022-10-31T03:54:51;98970.53;;;10.75;76.94
48622;BME280;34421;48.944;9.460;2022-10-31T03:57:25;98976.25;;;10.72;76.30
48622;BME280;34421;48.944;9.460;2022-10-31T03:59:56;98972.78;;;10.71;76.73
48622;BME280;34421;48.944;9.460;2022-10-31T04:02:25;98962.31;;;10.70;75.43
48622;BME280;34421;48.944;9.460;2022-10-31T04:04:52;98970.28;;;10.70;75.90
48622;BME280;34421;48.944;9.460;2022-10-31T04:07:18;98966.81;;;10.69;76.64
48622;BME280;34421;48.944;9.460;2022-10-31T04:09:45;98960.84;;;10.67;75.60
48622;BME280;34421;48.944;9.460;2022-10-31T04:12:12;98964.94;;;10.63;76.33
48622;BME280;34421;48.944;9.460;2022-10-31T04:14:40;98960.66;;;10.62;76.75
48622;BME280;34421;48.944;9.460;2022-10-31T04:17:07;98956.97;;;10.63;76.93
48622;BME280;34421;48.944;9.460;2022-10-31T04:19:34;98955.94;;;10.64;75.46
48622;BME280;34421;48.944;9.460;2022-10-31T04:21:59;98961.25;;;10.64;76.67
48622;BME280;34421;48.944;9.460;2022-10-31T04:24:25;98958.81;;;10.63;76.86
48622;BME280;34421;48.944;9.460;2022-10-31T04:26:50;98952.66;;;10.62;75.57
48622;BME280;34421;48.944;9.460;2022-10-31T04:29:15;98955.34;;;10.62;76.31
48622;BME280;34421;48.944;9.460;2022-10-31T04:31:40;98951.22;;;10.60;75.81
48622;BME280;34421;48.944;9.460;2022-10-31T04:34:05;98957.34;;;10.54;75.68
48622;BME280;34421;48.944;9.460;2022-10-31T04:36:32;98961.84;;;10.53;75.60
48622;BME280;34421;48.944;9.460;2022-10-31T04:38:57;98956.53;;;10.53;75.31
48622;BME280;34421;48.944;9.460;2022-10-31T04:41:22;98955.50;;;10.54;75.63
48622;BME280;34421;48.944;9.460;2022-10-31T04:43:47;98947.50;;;10.54;75.28
48622;BME280;34421;48.944;9.460;2022-10-31T04:46:13;98940.34;;;10.55;75.54
48622;BME280;34421;48.944;9.460;2022-10-31T04:48:38;98943.22;;;10.53;76.64
48622;BME280;34421;48.944;9.460;2022-10-31T04:51:03;98942.97;;;10.48;75.40
48622;BME280;34421;48.944;9.460;2022-10-31T04:53:28;98938.28;;;10.50;76.55
48622;BME280;34421;48.944;9.460;2022-10-31T04:55:54;98940.09;;;10.49;75.82
48622;BME280;34421;48.944;9.460;2022-10-31T04:58:19;98931.91;;;10.44;76.37
48622;BME280;34421;48.944;9.460;2022-10-31T05:00:44;98938.88;;;10.45;75.67
48622;BME280;34421;48.944;9.460;2022-10-31T05:03:09;98927.41;;;10.45;75.85
48622;BME280;34421;48.944;9.460;2022-10-31T05:05:34;98925.72;;;10.44;76.16
48622;BME280;34421;48.944;9.460;2022-10-31T05:08:00;98921.44;;;10.43;76.27
48622;BME280;34421;48.944;9.460;2022-10-31T05:10:26;98921.66;;;10.41;76.06
48622;BME280;34421;48.944;9.460;2022-10-31T05:12:59;98912.63;;;10.36;76.91
48622;BME280;34421;48.944;9.460;2022-10-31T05:15:25;98917.13;;;10.35;76.08
48622;BME280;34421;48.944;9.460;2022-10-31T05:17:51;98911.81;;;10.35;76.37
48622;BME280;34421;48.944;9.460;2022-10-31T05:20:17;98908.75;;;10.38;75.83
48622;BME280;34421;48.944;9.460;2022-10-31T05:22:46;98911.41;;;10.38;76.90
48622;BME280;34421;48.944;9.460;2022-10-31T05:25:11;98897.88;;;10.40;75.80
48622;BME280;34421;48.944;9.460;2022-10-31T05:27:40;98902.38;;;10.39;76.16
48622;BME280;34421;48.944;9.460;2022-10-31T05:30:06;98900.75;;;10.38;75.91
48622;BME280;34421;48.944;9.460;2022-10-31T05:32:36;98901.16;;;10.35;77.00
48622;BME280;34421;48.944;9.460;2022-10-31T05:35:01;98901.34;;;10.34;76.88
48622;BME280;34421;48.944;9.460;2022-10-31T05:37:26;98901.72;;;10.31;75.56
48622;BME280;34421;48.944;9.460;2022-10-31T05:39:51;98896.59;;;10.29;75.53
48622;BME280;34421;48.944;9.460;2022-10-31T05:42:17;98899.47;;;10.27;76.65
48622;BME280;34421;48.944;9.460;2022-10-31T05:44:42;98897.44;;;10.30;76.61
48622;BME280;34421;48.944;9.460;2022-10-31T05:47:07;98898.66;;;10.27;75.57
48622;BME280;34421;48.944;9.460;2022-10-31T05:49:32;98904.34;;;10.24;76.68
48622;BME280;34421;48.944;9.460;2022-10-31T05:51:57;98904.72;;;10.21;75.57
48622;BME280;34421;48.944;9.460;2022-10-31T05:54:23;98903.28;;;10.18;75.85
48622;BME280;34421;48.944;9.460;2022-10-31T05:56:48;98911.66;;;10.15;76.11
48622;BME280;34421;48.944;9.460;2022-10-31T05:59:13;98912.06;;;10.12;76.13
48622;BME280;34421;48.944;9.460;2022-10-31T06:01:38;98906.72;;;10.12;76.65
48622;BME280;34421;48.944;9.460;2022-10-31T06:04:03;98907.94;;;10.10;75.48
48622;BME280;34421;48.944;9.460;2022-10-31T06:06:29;98904.88;;;10.06;75.40
48622;BME280;34421;48.944;9.460;2022-10-31T06:08:54;98903.00;;;10.07;75.53
48622;BME280;34421;48.944;9.460;2022-10-31T06:11:19;98908.75;;;10.10;75.69
48622;BME280;34421;48.944;9.460;2022-10-31T06:13:44;98907.72;;;10.11;75.91
48622;BME280;34421;48.944;9.460;2022-10-31T06:16:09;98908.38;;;10.13;76.06
48622;BME280;34421;48.944;9.460;2022-10-31T06:18:35;98910.03;;;10.14;76.30
48622;BME280;34421;48.944;9.460;2022-10-31T06:21:00;98905.72;;;10.13;76.58
48622;BME280;34421;48.944;9.460;2022-10-31T06:23:25;98903.25;;;10.12;76.80
48622;BME280;34421;48.944;9.460;2022-10-31T06:25:50;98908.75;;;10.10;76.46
48622;BME280;34421;48.944;9.460;2022-10-31T06:28:16;98898.50;;;10.07;76.16
48622;BME280;34421;48.944;9.460;2022-10-31T06:30:41;98904.88;;;10.06;75.51
48622;BME280;34421;48.944;9.460;2022-10-31T06:33:06;98906.50;;;10.07;75.57
48622;BME280;34421;48.944;9.460;2022-10-31T06:35:32;98907.53;;;10.06;76.47
48622;BME280;34421;48.944;9.460;2022-10-31T06:37:57;98909.16;;;10.07;76.18
48622;BME280;34421;48.944;9.460;2022-10-31T06:40:22;98911.41;;;10.10;76.20
48622;BME280;34421;48.944;9.460;2022-10-31T06:42:55;98906.34;;;10.15;76.03
48622;BME280;34421;48.944;9.460;2022-10-31T06:45:20;98909.25;;;10.20;76.34
48622;BME280;34421;48.944;9.460;2022-10-31T06:47:50;98910.88;;;10.21;75.78
48622;BME280;34421;48.944;9.460;2022-10-31T06:50:15;98907.19;;;10.22;75.94
48622;BME280;34421;48.944;9.460;2022-10-31T06:52:40;98907.00;;;10.24;75.82
48622;BME280;34421;48.944;9.460;2022-10-31T06:55:05;98906.44;;;10.29;76.15
48622;BME280;34421;48.944;9.460;2022-10-31T06:57:31;98908.69;;;10.32;75.15
48622;BME280;34421;48.944;9.460;2022-10-31T06:59:56;98904.00;;;10.34;76.14
48622;BME280;34421;48.944;9.460;2022-10-31T07:02:21;98907.09;;;10.37;76.16
48622;BME280;34421;48.944;9.460;2022-10-31T07:04:46;98914.28;;;10.43;75.20
48622;BME280;34421;48.944;9.460;2022-10-31T07:07:11;98914.72;;;10.47;76.28
48622;BME280;34421;48.944;9.460;2022-10-31T07:09:37;98909.41;;;10.47;76.22
48622;BME280;34421;48.944;9.460;2022-10-31T07:12:02;98914.91;;;10.52;75.97
48622;BME280;34421;48.944;9.460;2022-10-31T07:14:27;98908.19;;;10.56;75.40
48622;BME280;34421;48.944;9.460;2022-10-31T07:16:52;98904.72;;;10.62;76.03
48622;BME280;34421;48.944;9.460;2022-10-31T07:19:17;98907.41;;;10.69;75.92
48622;BME280;34421;48.944;9.460;2022-10-31T07:21:43;98906.59;;;10.75;75.36
48622;BME280;34421;48.944;9.460;2022-10-31T07:24:08;98912.34;;;10.79;75.14
48622;BME280;34421;48.944;9.460;2022-10-31T07:26:33;98913.59;;;10.83;76.62
48622;BME280;34421;48.944;9.460;2022-10-31T07:28:58;98906.63;;;10.88;76.12
48622;BME280;34421;48.944;9.460;2022-10-31T07:31:24;98913.00;;;10.94;76.34
48622;BME280;34421;48.944;9.460;2022-10-31T07:33:49;98913.22;;;10.99;76.11
48622;BME280;34421;48.944;9.460;2022-10-31T07:36:15;98921.44;;;11.04;76.36
48622;BME280;34421;48.944;9.460;2022-10-31T07:38:41;98925.97;;;11.10;75.45
48622;BME280;34421;48.944;9.460;2022-10-31T07:41:06;98919.81;;;11.16;75.46
48622;BME280;34421;48.944;9.460;2022-10-31T07:43:31;98927.59;;;11.18;75.59
48622;BME280;34421;48.944;9.460;2022-10-31T07:45:56;98935.19;;;11.21;76.48
48622;BME280;34421;48.944;9.460;2022-10-31T07:48:22;98934.19;;;11.29;76.65
48622;BME280;34421;48.944;9.460;2022-10-31T07:50:47;98929.66;;;11.36;76.29
48622;BME280;34421;48.944;9.460;2022-10-31T07:53:13;98930.50;;;11.43;76.22
48622;BME280;34421;48.944;9.460;2022-10-31T07:55:38;98924.75;;;11.46;76.33
48622;BME280;34421;48.944;9.460;2022-10-31T07:58:04;98920.66;;;11.50;76.55
48622;BME280;34421;48.944;9.460;2022-10-31T08:00:30;98917.38;;;11.55;77.19
48622;BME280;34421;48.944;9.460;2022-10-31T08:05:28;98911.22;;;11.61;77.60
48622;BME280;34421;48.944;9.460;2022-10-31T08:07:53;98911.22;;;11.68;77.22
48622;BME280;34421;48.944;9.460;2022-10-31T08:10:19;98911.63;;;11.78;77.14
48622;BME280;34421;48.944;9.460;2022-10-31T08:12:44;98916.56;;;11.88;77.67
48622;BME280;34421;48.944;9.460;2022-10-31T08:15:09;98915.31;;;11.97;77.01
48622;BME280;34421;48.944;9.460;2022-10-31T08:17:35;98910.56;;;12.05;77.04
48622;BME280;34421;48.944;9.460;2022-10-31T08:20:00;98906.66;;;12.15;77.45
48622;BME280;34421;48.944;9.460;2022-10-31T08:22:26;98907.25;;;12.23;77.66
48622;BME280;34421;48.944;9.460;2022-10-31T08:24:51;98909.47;;;12.33;77.63
48622;BME280;34421;48.944;9.460;2022-10-31T08:27:16;98903.66;;;12.43;77.28
48622;BME280;34421;48.944;9.460;2022-10-31T08:29:41;98905.28;;;12.50;77.84
48622;BME280;34421;48.944;9.460;2022-10-31T08:32:06;98913.06;;;12.59;77.64
48622;BME280;34421;48.944;9.460;2022-10-31T08:34:32;98912.00;;;12.66;77.44
48622;BME280;34421;48.944;9.460;2022-10-31T08:36:57;98906.59;;;12.73;77.77
48622;BME280;34421;48.944;9.460;2022-10-31T08:39:23;98915.84;;;12.77;77.52
48622;BME280;34421;48.944;9.460;2022-10-31T08:41:48;98908.03;;;12.82;77.89
48622;BME280;34421;48.944;9.460;2022-10-31T08:44:13;98898.09;;;12.89;77.82
48622;BME280;34421;48.944;9.460;2022-10-31T08:46:40;98896.63;;;12.93;77.83
48622;BME280;34421;48.944;9.460;2022-10-31T08:49:05;98889.41;;;13.00;77.94
48622;BME280;34421;48.944;9.460;2022-10-31T08:51:30;98892.84;;;13.08;77.98
48622;BME280;34421;48.944;9.460;2022-10-31T08:53:56;98898.13;;;13.14;78.01
48622;BME280;34421;48.944;9.460;2022-10-31T08:56:21;98893.56;;;13.21;78.06
48622;BME280;34421;48.944;9.460;2022-10-31T08:58:47;98894.16;;;13.30;77.92
48622;BME280;34421;48.944;9.460;2022-10-31T09:01:12;98896.53;;;13.38;78.01
48622;BME280;34421;48.944;9.460;2022-10-31T09:03:37;98893.59;;;13.47;77.92
48622;BME280;34421;48.944;9.460;2022-10-31T09:06:02;98891.09;;;13.52;77.83
48622;BME280;34421;48.944;9.460;2022-10-31T09:08:31;98886.50;;;13.59;77.97
48622;BME280;34421;48.944;9.460;2022-10-31T09:10:57;98880.28;;;13.65;77.88
48622;BME280;34421;48.944;9.460;2022-10-31T09:13:23;98880.81;;;13.74;78.06
48622;BME280;34421;48.944;9.460;2022-10-31T09:15:49;98873.56;;;13.81;78.02
48622;BME280;34421;48.944;9.460;2022-10-31T09:18:15;98875.91;;;13.89;78.12
48622;BME280;34421;48.944;9.460;2022-10-31T09:20:41;98864.13;;;13.97;77.77
48622;BME280;34421;48.944;9.460;2022-10-31T09:25:32;98870.88;;;14.18;77.79
48622;BME280;34421;48.944;9.460;2022-10-31T09:27:58;98862.31;;;14.27;77.73
48622;BME280;34421;48.944;9.460;2022-10-31T09:30:24;98864.25;;;14.39;77.77
48622;BME280;34421;48.944;9.460;2022-10-31T09:32:56;98853.81;;;14.49;78.18
48622;BME280;34421;48.944;9.460;2022-10-31T09:35:22;98852.25;;;14.59;77.86
48622;BME280;34421;48.944;9.460;2022-10-31T09:37:47;98863.03;;;14.71;77.83
48622;BME280;34421;48.944;9.460;2022-10-31T09:40:12;98860.63;;;14.81;78.31
48622;BME280;34421;48.944;9.460;2022-10-31T09:45:07;98856.22;;;14.99;77.67
48622;BME280;34421;48.944;9.460;2022-10-31T09:50:21;98852.09;;;15.15;78.00
48622;BME280;34421;48.944;9.460;2022-10-31T09:55:27;98854.06;;;15.31;78.09
48622;BME280;34421;48.944;9.460;2022-10-31T09:57:56;98849.44;;;15.38;77.54
48622;BME280;34421;48.944;9.460;2022-10-31T10:00:24;98841.25;;;15.45;77.78
48622;BME280;34421;48.944;9.460;2022-10-31T10:05:33;98839.41;;;15.57;77.56
48622;BME280;34421;48.944;9.460;2022-10-31T10:26:29;98822.78;;;16.07;77.36
48622;BME280;34421;48.944;9.460;2022-10-31T10:28:58;98826.75;;;16.16;76.93
48622;BME280;34421;48.944;9.460;2022-10-31T10:31:28;98828.59;;;16.28;77.09
48622;BME280;34421;48.944;9.460;2022-10-31T10:36:28;98830.75;;;16.43;75.92
48622;BME280;34421;48.944;9.460;2022-10-31T10:39:00;98826.84;;;16.50;75.60
48622;BME280;34421;48.944;9.460;2022-10-31T10:41:30;98826.25;;;16.60;75.72
48622;BME280;34421;48.944;9.460;2022-10-31T10:43:55;98828.41;;;16.75;75.55
48622;BME280;34421;48.944;9.460;2022-10-31T10:57:15;98808.16;;;17.18;74.09
48622;BME280;34421;48.944;9.460;2022-10-31T10:59:43;98800.31;;;17.33;73.48
48622;BME280;34421;48.944;9.460;2022-10-31T11:02:24;98799.91;;;17.41;73.74
48622;BME280;34421;48.944;9.460;2022-10-31T11:04:54;98794.34;;;17.48;72.94
48622;BME280;34421;48.944;9.460;2022-10-31T11:07:19;98790.94;;;17.52;72.99
48622;BME280;34421;48.944;9.460;2022-10-31T11:09:44;98782.09;;;17.57;72.70
48622;BME280;34421;48.944;9.460;2022-10-31T11:12:21;98785.09;;;17.61;72.37
48622;BME280;34421;48.944;9.460;2022-10-31T11:15:30;98778.16;;;17.65;72.17
48622;BME280;34421;48.944;9.460;2022-10-31T11:17:39;98770.72;;;17.72;72.03
48622;BME280;34421;48.944;9.460;2022-10-31T11:22:45;98766.31;;;17.83;71.71
48622;BME280;34421;48.944;9.460;2022-10-31T11:25:23;98772.31;;;17.90;71.67
48622;BME280;34421;48.944;9.460;2022-10-31T11:28:02;98760.31;;;17.97;71.93
48622;BME280;34421;48.944;9.460;2022-10-31T11:30:28;98763.06;;;18.03;71.47
48622;BME280;34421;48.944;9.460;2022-10-31T11:32:54;98766.59;;;18.08;71.33
48622;BME280;34421;48.944;9.460;2022-10-31T11:35:20;98748.06;;;18.12;71.16
48622;BME280;34421;48.944;9.460;2022-10-31T11:37:47;98749.19;;;18.16;70.67
48622;BME280;34421;48.944;9.460;2022-10-31T11:40:18;98737.16;;;18.24;70.64
48622;BME280;34421;48.944;9.460;2022-10-31T11:42:44;98732.38;;;18.31;70.28
48622;BME280;34421;48.944;9.460;2022-10-31T11:45:27;98729.97;;;18.34;70.07
48622;BME280;34421;48.944;9.460;2022-10-31T11:47:53;98727.06;;;18.41;70.05
48622;BME280;34421;48.944;9.460;2022-10-31T11:50:24;98715.25;;;18.47;69.75
48622;BME280;34421;48.944;9.460;2022-10-31T11:52:51;98720.75;;;18.57;69.95
48622;BME280;34421;48.944;9.460;2022-10-31T11:55:29;98706.00;;;18.65;69.72
48622;BME280;34421;48.944;9.460;2022-10-31T11:57:55;98707.09;;;18.69;69.51
48622;BME280;34421;48.944;9.460;2022-10-31T12:02:49;98707.78;;;18.81;68.95
48622;BME280;34421;48.944;9.460;2022-10-31T12:05:18;98696.47;;;18.84;68.41
48622;BME280;34421;48.944;9.460;2022-10-31T12:07:47;98691.63;;;18.86;68.20
48622;BME280;34421;48.944;9.460;2022-10-31T12:10:13;98688.72;;;18.93;68.03
48622;BME280;34421;48.944;9.460;2022-10-31T12:17:42;98683.69;;;19.12;67.71
48622;BME280;34421;48.944;9.460;2022-10-31T12:22:59;98687.84;;;19.25;66.98
48622;BME280;34421;48.944;9.460;2022-10-31T12:30:48;98677.88;;;19.30;66.53
48622;BME280;34421;48.944;9.460;2022-10-31T12:38:49;98667.91;;;19.36;66.43
48622;BME280;34421;48.944;9.460;2022-10-31T12:46:07;98663.13;;;19.53;66.19
48622;BME280;34421;48.944;9.460;2022-10-31T12:51:25;98638.56;;;19.55;66.39
48622;BME280;34421;48.944;9.460;2022-10-31T12:59:20;98634.22;;;19.49;66.00
48622;BME280;34421;48.944;9.460;2022-10-31T13:01:51;98625.03;;;19.50;65.66
48622;BME280;34421;48.944;9.460;2022-10-31T13:04:21;98630.72;;;19.48;65.52
48622;BME280;34421;48.944;9.460;2022-10-31T13:07:01;98629.88;;;19.48;66.09
48622;BME280;34421;48.944;9.460;2022-10-31T13:09:36;98625.31;;;19.48;66.33
48622;BME280;34421;48.944;9.460;2022-10-31T13:12:07;98612.31;;;19.45;66.09
48622;BME280;34421;48.944;9.460;2022-10-31T13:14:35;98607.44;;;19.42;66.17
48622;BME280;34421;48.944;9.460;2022-10-31T13:17:03;98605.03;;;19.41;65.90
48622;BME280;34421;48.944;9.460;2022-10-31T13:19:30;98605.03;;;19.41;66.51
48622;BME280;34421;48.944;9.460;2022-10-31T13:21:59;98597.69;;;19.36;66.01
48622;BME280;34421;48.944;9.460;2022-10-31T13:24:33;98596.06;;;19.30;66.24
48622;BME280;34421;48.944;9.460;2022-10-31T13:27:00;98593.63;;;19.23;66.86
48622;BME280;34421;48.944;9.460;2022-10-31T13:29:27;98590.88;;;19.18;66.38
48622;BME280;34421;48.944;9.460;2022-10-31T13:31:55;98589.00;;;19.13;66.91
48622;BME280;34421;48.944;9.460;2022-10-31T13:41:47;98573.78;;;18.97;66.96
48622;BME280;34421;48.944;9.460;2022-10-31T13:46:39;98566.81;;;19.01;66.99
48622;BME280;34421;48.944;9.460;2022-10-31T13:49:19;98562.22;;;19.02;66.90
48622;BME280;34421;48.944;9.460;2022-10-31T13:51:46;98551.16;;;19.03;66.35
48622;BME280;34421;48.944;9.460;2022-10-31T13:54:23;98558.19;;;19.04;66.54
48622;BME280;34421;48.944;9.460;2022-10-31T13:56:51;98557.91;;;19.06;67.06
48622;BME280;34421;48.944;9.460;2022-10-31T13:59:23;98553.09;;;19.13;66.98
48622;BME280;34421;48.944;9.460;2022-10-31T14:01:51;98553.41;;;19.22;66.87
48622;BME280;34421;48.944;9.460;2022-10-31T14:04:19;98555.34;;;19.37;67.02
48622;BME280;34421;48.944;9.460;2022-10-31T14:06:48;98568.44;;;19.91;66.55
48622;BME280;34421;48.944;9.460;2022-10-31T14:09:23;98564.09;;;20.46;64.92
48622;BME280;34421;48.944;9.460;2022-10-31T14:11:50;98566.22;;;20.90;64.36
48622;BME280;34421;48.944;9.460;2022-10-31T14:14:16;98566.22;;;20.90;63.96
48622;BME280;34421;48.944;9.460;2022-10-31T14:16:42;98565.41;;;20.84;64.57
48622;BME280;34421;48.944;9.460;2022-10-31T14:19:17;98571.56;;;21.10;63.66
48622;BME280;34421;48.944;9.460;2022-10-31T14:21:44;98565.75;;;21.43;62.64
48622;BME280;34421;48.944;9.460;2022-10-31T14:26:56;98556.84;;;21.32;62.52
48622;BME280;34421;48.944;9.460;2022-10-31T14:29:28;98544.91;;;21.38;62.28
48622;BME280;34421;48.944;9.460;2022-10-31T14:34:28;98535.13;;;20.82;61.86
48622;BME280;34421;48.944;9.460;2022-10-31T14:37:14;98518.97;;;20.57;63.21
48622;BME280;34421;48.944;9.460;2022-10-31T14:48:08;98537.28;;;20.80;63.42
48622;BME280;34421;48.944;9.460;2022-10-31T14:53:08;98530.84;;;20.40;64.21
48622;BME280;34421;48.944;9.460;2022-10-31T14:55:38;98529.81;;;20.26;63.67
48622;BME280;34421;48.944;9.460;2022-10-31T14:58:06;98528.44;;;20.13;64.15
48622;BME280;34421;48.944;9.460;2022-10-31T15:00:32;98534.41;;;20.05;64.01
48622;BME280;34421;48.944;9.460;2022-10-31T15:05:40;98529.78;;;19.95;65.34
48622;BME280;34421;48.944;9.460;2022-10-31T15:08:12;98521.44;;;19.97;64.64
48622;BME280;34421;48.944;9.460;2022-10-31T15:10:38;98524.41;;;19.90;65.81
48622;BME280;34421;48.944;9.460;2022-10-31T15:13:10;98517.09;;;19.80;65.66
48622;BME280;34421;48.944;9.460;2022-10-31T15:15:35;98521.94;;;19.68;66.11
48622;BME280;34421;48.944;9.460;2022-10-31T15:18:01;98522.16;;;19.56;66.20
48622;BME280;34421;48.944;9.460;2022-10-31T15:20:29;98511.09;;;19.43;66.62
48622;BME280;34421;48.944;9.460;2022-10-31T15:22:56;98505.91;;;19.31;66.92
48622;BME280;34421;48.944;9.460;2022-10-31T15:25:22;98516.66;;;19.21;67.38
48622;BME280;34421;48.944;9.460;2022-10-31T15:27:49;98515.28;;;19.08;67.27
48622;BME280;34421;48.944;9.460;2022-10-31T15:32:46;98514.41;;;18.87;68.22
48622;BME280;34421;48.944;9.460;2022-10-31T15:35:18;98521.63;;;18.76;68.54